sensor_id;sensor_type;location;lat;lon;timestamp;temperature;humidity
15713;DHT22;7957;51.608;6.916;2023-08-01T00:01:08;16.90;99.90
15713;DHT22;7957;51.608;6.916;2023-08-01T00:03:35;16.90;99.90
15713;DHT22;7957;51.608;6.916;2023-08-01T00:06:02;16.90;99.90
15713;DHT22;7957;51.608;6.916;2023-08-01T00:08:29;16.90;99.90
15713;DHT22;7957;51.608;6.916;2023-08-01T00:10:57;16.90;99.90
15713;DHT22;7957;51.608;6.916;2023-08-01T00:13:24;16.90;99.90
15713;DHT22;7957;51.608;6.916;2023-08-01T00:15:51;16.90;99.90
15713;DHT22;7957;51.608;6.916;2023-08-01T00:18:17;16.90;99.90
15713;DHT22;7957;51.608;6.916;2023-08-01T00:20:44;16.80;99.90
15713;DHT22;7957;51.608;6.916;2023-08-01T00:23:11;16.80;99.90
15713;DHT22;7957;51.608;6.916;2023-08-01T00:25:38;16.90;99.90
15713;DHT22;7957;51.608;6.916;2023-08-01T00:28:08;16.80;99.90
15713;DHT22;7957;51.608;6.916;2023-08-01T00:30:34;16.90;99.90
15713;DHT22;7957;51.608;6.916;2023-08-01T00:33:01;16.80;99.90
15713;DHT22;7957;51.608;6.916;2023-08-01T00:35:28;16.80;99.90
15713;DHT22;7957;51.608;6.916;2023-08-01T00:37:58;16.80;99.90
15713;DHT22;7957;51.608;6.916;2023-08-01T00:40:29;16.80;99.90
15713;DHT22;7957;51.608;6.916;2023-08-01T00:42:56;16.80;99.90
15713;DHT22;7957;51.608;6.916;2023-08-01T00:45:26;16.80;99.90
15713;DHT22;7957;51.608;6.916;2023-08-01T00:47:54;16.80;99.90
15713;DHT22;7957;51.608;6.916;2023-08-01T00:50:22;16.80;99.90
15713;DHT22;7957;51.608;6.916;2023-08-01T00:52:50;16.80;99.90
15713;DHT22;7957;51.608;6.916;2023-08-01T00:55:18;16.80;99.90
15713;DHT22;7957;51.608;6.916;2023-08-01T00:57:46;16.90;99.90
15713;DHT22;7957;51.608;6.916;2023-08-01T01:00:14;16.90;99.90
15713;DHT22;7957;51.608;6.916;2023-08-01T01:02:43;16.80;99.90
15713;DHT22;7957;51.608;6.916;2023-08-01T01:05:10;16.80;99.90
15713;DHT22;7957;51.608;6.916;2023-08-01T01:07:37;16.80;99.90
15713;DHT22;7957;51.608;6.916;2023-08-01T01:10:06;16.80;99.90
15713;DHT22;7957;51.608;6.916;2023-08-01T01:12:33;16.80;99.90
15713;DHT22;7957;51.608;6.916;2023-08-01T01:14:59;16.80;99.90
15713;DHT22;7957;51.608;6.916;2023-08-01T01:17:26;16.80;99.90
15713;DHT22;7957;51.608;6.916;2023-08-01T01:19:54;16.70;99.90
15713;DHT22;7957;51.608;6.916;2023-08-01T01:22:22;16.80;99.90
15713;DHT22;7957;51.608;6.916;2023-08-01T01:24:50;16.70;99.90
15713;DHT22;7957;51.608;6.916;2023-08-01T01:27:19;16.70;99.90
15713;DHT22;7957;51.608;6.916;2023-08-01T01:29:47;16.70;99.90
15713;DHT22;7957;51.608;6.916;2023-08-01T01:32:15;16.70;99.90
15713;DHT22;7957;51.608;6.916;2023-08-01T01:34:44;16.70;99.90
15713;DHT22;7957;51.608;6.916;2023-08-01T01:37:11;16.70;99.90
15713;DHT22;7957;51.608;6.916;2023-08-01T01:39:40;16.70;99.90
15713;DHT22;7957;51.608;6.916;2023-08-01T01:42:07;16.70;99.90
15713;DHT22;7957;51.608;6.916;2023-08-01T01:44:34;16.70;99.90
15713;DHT22;7957;51.608;6.916;2023-08-01T01:47:01;16.70;99.90
15713;DHT22;7957;51.608;6.916;2023-08-01T01:49:28;16.70;99.90
15713;DHT22;7957;51.608;6.916;2023-08-01T01:51:55;16.70;99.90
15713;DHT22;7957;51.608;6.916;2023-08-01T01:54:22;16.70;99.90
15713;DHT22;7957;51.608;6.916;2023-08-01T01:56:50;16.70;99.90
15713;DHT22;7957;51.608;6.916;2023-08-01T01:59:17;16.70;99.90
15713;DHT22;7957;51.608;6.916;2023-08-01T02:01:44;16.70;99.90
15713;DHT22;7957;51.608;6.916;2023-08-01T02:04:11;16.70;99.90
15713;DHT22;7957;51.608;6.916;2023-08-01T02:06:38;16.70;99.90
15713;DHT22;7957;51.608;6.916;2023-08-01T02:09:24;16.70;99.90
15713;DHT22;7957;51.608;6.916;2023-08-01T02:11:52;16.70;99.90
15713;DHT22;7957;51.608;6.916;2023-08-01T02:14:19;16.70;99.90
15713;DHT22;7957;51.608;6.916;2023-08-01T02:16:46;16.70;99.90
15713;DHT22;7957;51.608;6.916;2023-08-01T02:19:13;16.70;99.90
15713;DHT22;7957;51.608;6.916;2023-08-01T02:21:40;16.70;99.90
15713;DHT22;7957;51.608;6.916;2023-08-01T02:24:06;16.70;99.90
15713;DHT22;7957;51.608;6.916;2023-08-01T02:26:33;16.70;99.90
15713;DHT22;7957;51.608;6.916;2023-08-01T02:29:02;16.70;99.90
15713;DHT22;7957;51.608;6.916;2023-08-01T02:31:29;16.70;99.90
15713;DHT22;7957;51.608;6.916;2023-08-01T02:33:56;16.70;99.90
15713;DHT22;7957;51.608;6.916;2023-08-01T02:36:23;16.70;99.90
15713;DHT22;7957;51.608;6.916;2023-08-01T02:38:50;16.70;99.90
15713;DHT22;7957;51.608;6.916;2023-08-01T02:41:17;16.70;99.90
15713;DHT22;7957;51.608;6.916;2023-08-01T02:43:43;16.70;99.90
15713;DHT22;7957;51.608;6.916;2023-08-01T02:46:12;16.70;99.90
15713;DHT22;7957;51.608;6.916;2023-08-01T02:48:39;16.70;99.90
15713;DHT22;7957;51.608;6.916;2023-08-01T02:51:06;16.70;99.90
15713;DHT22;7957;51.608;6.916;2023-08-01T02:53:34;16.70;99.90
15713;DHT22;7957;51.608;6.916;2023-08-01T02:56:01;16.70;99.90
15713;DHT22;7957;51.608;6.916;2023-08-01T02:58:28;16.70;99.90
15713;DHT22;7957;51.608;6.916;2023-08-01T03:00:55;16.70;99.90
15713;DHT22;7957;51.608;6.916;2023-08-01T03:03:23;16.70;99.90
15713;DHT22;7957;51.608;6.916;2023-08-01T03:05:51;16.70;99.90
15713;DHT22;7957;51.608;6.916;2023-08-01T03:08:18;16.70;99.90
15713;DHT22;7957;51.608;6.916;2023-08-01T03:10:45;16.70;99.90
15713;DHT22;7957;51.608;6.916;2023-08-01T03:13:12;16.70;99.90
15713;DHT22;7957;51.608;6.916;2023-08-01T03:15:39;16.70;99.90
15713;DHT22;7957;51.608;6.916;2023-08-01T03:18:06;16.70;99.90
15713;DHT22;7957;51.608;6.916;2023-08-01T03:20:34;16.70;99.90
15713;DHT22;7957;51.608;6.916;2023-08-01T03:23:01;16.60;99.90
15713;DHT22;7957;51.608;6.916;2023-08-01T03:25:28;16.60;99.90
15713;DHT22;7957;51.608;6.916;2023-08-01T03:27:55;16.60;99.90
15713;DHT22;7957;51.608;6.916;2023-08-01T03:30:23;16.60;99.90
15713;DHT22;7957;51.608;6.916;2023-08-01T03:32:50;16.60;99.90
15713;DHT22;7957;51.608;6.916;2023-08-01T03:35:17;16.60;99.90
15713;DHT22;7957;51.608;6.916;2023-08-01T03:37:45;16.60;99.90
15713;DHT22;7957;51.608;6.916;2023-08-01T03:40:12;16.60;99.90
15713;DHT22;7957;51.608;6.916;2023-08-01T03:42:39;16.60;99.90
15713;DHT22;7957;51.608;6.916;2023-08-01T03:45:08;16.60;99.90
15713;DHT22;7957;51.608;6.916;2023-08-01T03:47:35;16.60;99.90
15713;DHT22;7957;51.608;6.916;2023-08-01T03:50:03;16.60;99.90
15713;DHT22;7957;51.608;6.916;2023-08-01T03:52:30;16.60;99.90
15713;DHT22;7957;51.608;6.916;2023-08-01T03:54:58;16.60;99.90
15713;DHT22;7957;51.608;6.916;2023-08-01T03:57:25;16.60;99.90
15713;DHT22;7957;51.608;6.916;2023-08-01T03:59:52;16.50;99.90
15713;DHT22;7957;51.608;6.916;2023-08-01T04:02:19;16.50;99.90
15713;DHT22;7957;51.608;6.916;2023-08-01T04:04:45;16.50;99.90
15713;DHT22;7957;51.608;6.916;2023-08-01T04:07:12;16.50;99.90
15713;DHT22;7957;51.608;6.916;2023-08-01T04:09:39;16.50;99.90
15713;DHT22;7957;51.608;6.916;2023-08-01T04:12:08;16.50;99.90
15713;DHT22;7957;51.608;6.916;2023-08-01T04:14:35;16.50;99.90
15713;DHT22;7957;51.608;6.916;2023-08-01T04:17:02;16.50;99.90
15713;DHT22;7957;51.608;6.916;2023-08-01T04:19:29;16.50;99.90
15713;DHT22;7957;51.608;6.916;2023-08-01T04:21:56;16.50;99.90
15713;DHT22;7957;51.608;6.916;2023-08-01T04:24:23;16.50;99.90
15713;DHT22;7957;51.608;6.916;2023-08-01T04:26:51;16.50;99.90
15713;DHT22;7957;51.608;6.916;2023-08-01T04:29:19;16.50;99.90
15713;DHT22;7957;51.608;6.916;2023-08-01T04:31:46;16.50;99.90
15713;DHT22;7957;51.608;6.916;2023-08-01T04:34:13;16.50;99.90
15713;DHT22;7957;51.608;6.916;2023-08-01T04:36:40;16.50;99.90
15713;DHT22;7957;51.608;6.916;2023-08-01T04:39:07;16.40;99.90
15713;DHT22;7957;51.608;6.916;2023-08-01T04:41:34;16.40;99.90
15713;DHT22;7957;51.608;6.916;2023-08-01T04:44:01;16.40;99.90
15713;DHT22;7957;51.608;6.916;2023-08-01T04:46:29;16.40;99.90
15713;DHT22;7957;51.608;6.916;2023-08-01T04:48:56;16.40;99.90
15713;DHT22;7957;51.608;6.916;2023-08-01T04:51:23;16.40;99.90
15713;DHT22;7957;51.608;6.916;2023-08-01T04:53:50;16.40;99.90
15713;DHT22;7957;51.608;6.916;2023-08-01T04:56:17;16.40;99.90
15713;DHT22;7957;51.608;6.916;2023-08-01T04:58:43;16.40;99.90
15713;DHT22;7957;51.608;6.916;2023-08-01T05:01:10;16.40;99.90
15713;DHT22;7957;51.608;6.916;2023-08-01T05:03:39;16.40;99.90
15713;DHT22;7957;51.608;6.916;2023-08-01T05:06:06;16.40;99.90
15713;DHT22;7957;51.608;6.916;2023-08-01T05:08:33;16.40;99.90
15713;DHT22;7957;51.608;6.916;2023-08-01T05:11:00;16.40;99.90
15713;DHT22;7957;51.608;6.916;2023-08-01T05:13:27;16.40;99.90
15713;DHT22;7957;51.608;6.916;2023-08-01T05:15:53;16.40;99.90
15713;DHT22;7957;51.608;6.916;2023-08-01T05:18:34;16.40;99.90
15713;DHT22;7957;51.608;6.916;2023-08-01T05:21:03;16.40;99.90
15713;DHT22;7957;51.608;6.916;2023-08-01T05:23:30;16.40;99.90
15713;DHT22;7957;51.608;6.916;2023-08-01T05:25:56;16.40;99.90
15713;DHT22;7957;51.608;6.916;2023-08-01T05:28:24;16.40;99.90
15713;DHT22;7957;51.608;6.916;2023-08-01T05:31:06;16.40;99.90
15713;DHT22;7957;51.608;6.916;2023-08-01T05:33:32;16.40;99.90
15713;DHT22;7957;51.608;6.916;2023-08-01T05:35:59;16.40;99.90
15713;DHT22;7957;51.608;6.916;2023-08-01T05:38:30;16.40;99.90
15713;DHT22;7957;51.608;6.916;2023-08-01T05:40:57;16.40;99.90
15713;DHT22;7957;51.608;6.916;2023-08-01T05:43:24;16.40;99.90
15713;DHT22;7957;51.608;6.916;2023-08-01T05:45:51;16.40;99.90
15713;DHT22;7957;51.608;6.916;2023-08-01T05:48:18;16.40;99.90
15713;DHT22;7957;51.608;6.916;2023-08-01T05:50:45;16.40;99.90
15713;DHT22;7957;51.608;6.916;2023-08-01T05:53:12;16.40;99.90
15713;DHT22;7957;51.608;6.916;2023-08-01T05:55:40;16.50;99.90
15713;DHT22;7957;51.608;6.916;2023-08-01T05:58:07;16.50;99.90
15713;DHT22;7957;51.608;6.916;2023-08-01T06:00:34;16.50;99.90
15713;DHT22;7957;51.608;6.916;2023-08-01T06:03:01;16.50;99.90
15713;DHT22;7957;51.608;6.916;2023-08-01T06:05:28;16.50;99.90
15713;DHT22;7957;51.608;6.916;2023-08-01T06:07:55;16.50;99.90
15713;DHT22;7957;51.608;6.916;2023-08-01T06:10:22;16.50;99.90
15713;DHT22;7957;51.608;6.916;2023-08-01T06:12:50;16.50;99.90
15713;DHT22;7957;51.608;6.916;2023-08-01T06:15:17;16.50;99.90
15713;DHT22;7957;51.608;6.916;2023-08-01T06:17:44;16.60;99.90
15713;DHT22;7957;51.608;6.916;2023-08-01T06:20:14;16.50;99.90
15713;DHT22;7957;51.608;6.916;2023-08-01T06:22:41;16.60;99.90
15713;DHT22;7957;51.608;6.916;2023-08-01T06:25:08;16.60;99.90
15713;DHT22;7957;51.608;6.916;2023-08-01T06:27:36;16.60;99.90
15713;DHT22;7957;51.608;6.916;2023-08-01T06:30:06;16.60;99.90
15713;DHT22;7957;51.608;6.916;2023-08-01T06:32:33;16.60;99.90
15713;DHT22;7957;51.608;6.916;2023-08-01T06:35:02;16.60;99.90
15713;DHT22;7957;51.608;6.916;2023-08-01T06:37:29;16.70;99.90
15713;DHT22;7957;51.608;6.916;2023-08-01T06:39:58;16.70;99.90
15713;DHT22;7957;51.608;6.916;2023-08-01T06:42:25;16.70;99.90
15713;DHT22;7957;51.608;6.916;2023-08-01T06:44:52;16.70;99.90
15713;DHT22;7957;51.608;6.916;2023-08-01T06:47:21;16.70;99.90
15713;DHT22;7957;51.608;6.916;2023-08-01T06:49:48;16.70;99.90
15713;DHT22;7957;51.608;6.916;2023-08-01T06:52:15;16.70;99.90
15713;DHT22;7957;51.608;6.916;2023-08-01T06:54:42;16.80;99.90
15713;DHT22;7957;51.608;6.916;2023-08-01T06:57:09;16.70;99.90
15713;DHT22;7957;51.608;6.916;2023-08-01T06:59:35;16.80;99.90
15713;DHT22;7957;51.608;6.916;2023-08-01T07:02:03;16.80;99.90
15713;DHT22;7957;51.608;6.916;2023-08-01T07:04:31;16.80;99.90
15713;DHT22;7957;51.608;6.916;2023-08-01T07:06:59;16.80;99.90
15713;DHT22;7957;51.608;6.916;2023-08-01T07:09:27;16.90;99.90
15713;DHT22;7957;51.608;6.916;2023-08-01T07:11:54;16.90;99.90
15713;DHT22;7957;51.608;6.916;2023-08-01T07:14:20;16.90;99.90
15713;DHT22;7957;51.608;6.916;2023-08-01T07:16:47;16.90;99.90
15713;DHT22;7957;51.608;6.916;2023-08-01T07:19:14;16.90;99.90
15713;DHT22;7957;51.608;6.916;2023-08-01T07:21:43;16.90;99.90
15713;DHT22;7957;51.608;6.916;2023-08-01T07:24:10;17.00;99.90
15713;DHT22;7957;51.608;6.916;2023-08-01T07:26:39;17.00;99.90
15713;DHT22;7957;51.608;6.916;2023-08-01T07:29:06;17.00;99.90
15713;DHT22;7957;51.608;6.916;2023-08-01T07:31:33;17.00;99.90
15713;DHT22;7957;51.608;6.916;2023-08-01T07:34:00;17.00;99.90
15713;DHT22;7957;51.608;6.916;2023-08-01T07:36:27;17.10;99.90
15713;DHT22;7957;51.608;6.916;2023-08-01T07:38:55;17.10;99.90
15713;DHT22;7957;51.608;6.916;2023-08-01T07:41:22;17.10;99.90
15713;DHT22;7957;51.608;6.916;2023-08-01T07:43:49;17.10;99.90
15713;DHT22;7957;51.608;6.916;2023-08-01T07:46:16;17.10;99.90
15713;DHT22;7957;51.608;6.916;2023-08-01T07:48:43;17.20;99.90
15713;DHT22;7957;51.608;6.916;2023-08-01T07:51:10;17.20;99.90
15713;DHT22;7957;51.608;6.916;2023-08-01T07:53:37;17.20;99.90
15713;DHT22;7957;51.608;6.916;2023-08-01T07:56:05;17.30;99.90
15713;DHT22;7957;51.608;6.916;2023-08-01T07:58:34;17.30;99.90
15713;DHT22;7957;51.608;6.916;2023-08-01T08:01:03;17.30;99.90
15713;DHT22;7957;51.608;6.916;2023-08-01T08:03:30;17.30;99.90
15713;DHT22;7957;51.608;6.916;2023-08-01T08:05:57;17.30;99.90
15713;DHT22;7957;51.608;6.916;2023-08-01T08:08:24;17.30;99.90
15713;DHT22;7957;51.608;6.916;2023-08-01T08:10:52;17.30;99.90
15713;DHT22;7957;51.608;6.916;2023-08-01T08:13:20;17.30;99.90
15713;DHT22;7957;51.608;6.916;2023-08-01T08:15:47;17.40;99.90
15713;DHT22;7957;51.608;6.916;2023-08-01T08:18:14;17.40;99.90
15713;DHT22;7957;51.608;6.916;2023-08-01T08:20:44;17.50;99.90
15713;DHT22;7957;51.608;6.916;2023-08-01T08:23:12;17.50;99.90
15713;DHT22;7957;51.608;6.916;2023-08-01T08:25:39;17.50;99.90
15713;DHT22;7957;51.608;6.916;2023-08-01T08:28:07;17.50;99.90
15713;DHT22;7957;51.608;6.916;2023-08-01T08:30:36;17.50;99.90
15713;DHT22;7957;51.608;6.916;2023-08-01T08:33:03;17.60;99.90
15713;DHT22;7957;51.608;6.916;2023-08-01T08:35:32;17.70;99.90
15713;DHT22;7957;51.608;6.916;2023-08-01T08:38:01;17.80;99.90
15713;DHT22;7957;51.608;6.916;2023-08-01T08:40:29;17.90;99.90
15713;DHT22;7957;51.608;6.916;2023-08-01T08:42:58;18.00;99.90
15713;DHT22;7957;51.608;6.916;2023-08-01T08:45:27;18.10;99.90
15713;DHT22;7957;51.608;6.916;2023-08-01T08:47:59;18.10;99.90
15713;DHT22;7957;51.608;6.916;2023-08-01T08:50:29;18.10;99.90
15713;DHT22;7957;51.608;6.916;2023-08-01T08:52:57;18.20;99.90
15713;DHT22;7957;51.608;6.916;2023-08-01T08:55:24;18.20;99.90
15713;DHT22;7957;51.608;6.916;2023-08-01T08:57:52;18.20;99.90
15713;DHT22;7957;51.608;6.916;2023-08-01T09:00:20;18.20;99.90
15713;DHT22;7957;51.608;6.916;2023-08-01T09:02:47;18.20;99.90
15713;DHT22;7957;51.608;6.916;2023-08-01T09:05:16;18.30;99.90
15713;DHT22;7957;51.608;6.916;2023-08-01T09:07:45;18.40;99.90
15713;DHT22;7957;51.608;6.916;2023-08-01T09:10:13;18.50;99.90
15713;DHT22;7957;51.608;6.916;2023-08-01T09:12:40;18.50;99.90
15713;DHT22;7957;51.608;6.916;2023-08-01T09:15:08;18.50;99.90
15713;DHT22;7957;51.608;6.916;2023-08-01T09:17:47;18.50;99.90
15713;DHT22;7957;51.608;6.916;2023-08-01T09:20:16;18.50;99.90
15713;DHT22;7957;51.608;6.916;2023-08-01T09:22:43;18.60;99.90
15713;DHT22;7957;51.608;6.916;2023-08-01T09:25:11;18.60;99.90
15713;DHT22;7957;51.608;6.916;2023-08-01T09:27:38;18.70;99.90
15713;DHT22;7957;51.608;6.916;2023-08-01T09:30:07;18.70;99.90
15713;DHT22;7957;51.608;6.916;2023-08-01T09:32:34;18.70;99.90
15713;DHT22;7957;51.608;6.916;2023-08-01T09:35:01;18.70;99.90
15713;DHT22;7957;51.608;6.916;2023-08-01T09:37:39;18.60;99.90
15713;DHT22;7957;51.608;6.916;2023-08-01T09:40:07;18.60;99.90
15713;DHT22;7957;51.608;6.916;2023-08-01T09:42:38;18.50;99.90
15713;DHT22;7957;51.608;6.916;2023-08-01T09:45:11;18.50;99.90
15713;DHT22;7957;51.608;6.916;2023-08-01T09:47:40;18.40;99.90
15713;DHT22;7957;51.608;6.916;2023-08-01T09:50:08;18.40;99.90
15713;DHT22;7957;51.608;6.916;2023-08-01T09:52:36;18.40;99.90
15713;DHT22;7957;51.608;6.916;2023-08-01T09:55:05;18.40;99.90
15713;DHT22;7957;51.608;6.916;2023-08-01T09:57:32;18.40;99.90
15713;DHT22;7957;51.608;6.916;2023-08-01T10:00:01;18.40;99.90
15713;DHT22;7957;51.608;6.916;2023-08-01T10:02:30;18.40;99.90
15713;DHT22;7957;51.608;6.916;2023-08-01T10:05:00;18.30;99.90
15713;DHT22;7957;51.608;6.916;2023-08-01T10:07:29;18.30;99.90
15713;DHT22;7957;51.608;6.916;2023-08-01T10:09:58;18.20;99.90
15713;DHT22;7957;51.608;6.916;2023-08-01T10:12:27;18.20;99.90
15713;DHT22;7957;51.608;6.916;2023-08-01T10:14:55;18.10;99.90
15713;DHT22;7957;51.608;6.916;2023-08-01T10:17:24;18.10;99.90
15713;DHT22;7957;51.608;6.916;2023-08-01T10:19:53;18.00;99.90
15713;DHT22;7957;51.608;6.916;2023-08-01T10:22:24;18.00;99.90
15713;DHT22;7957;51.608;6.916;2023-08-01T10:24:51;18.00;99.90
15713;DHT22;7957;51.608;6.916;2023-08-01T10:27:20;17.90;99.90
15713;DHT22;7957;51.608;6.916;2023-08-01T10:29:57;17.90;99.90
15713;DHT22;7957;51.608;6.916;2023-08-01T10:32:31;17.80;99.90
15713;DHT22;7957;51.608;6.916;2023-08-01T10:34:59;17.80;99.90
15713;DHT22;7957;51.608;6.916;2023-08-01T10:37:26;17.70;99.90
15713;DHT22;7957;51.608;6.916;2023-08-01T10:39:57;17.70;99.90
15713;DHT22;7957;51.608;6.916;2023-08-01T10:42:24;17.60;99.90
15713;DHT22;7957;51.608;6.916;2023-08-01T10:44:51;17.60;99.90
15713;DHT22;7957;51.608;6.916;2023-08-01T10:47:26;17.60;99.90
15713;DHT22;7957;51.608;6.916;2023-08-01T10:49:53;17.60;99.90
15713;DHT22;7957;51.608;6.916;2023-08-01T10:52:26;17.60;99.90
15713;DHT22;7957;51.608;6.916;2023-08-01T10:54:58;17.60;99.90
15713;DHT22;7957;51.608;6.916;2023-08-01T10:57:26;17.60;99.90
15713;DHT22;7957;51.608;6.916;2023-08-01T10:59:55;17.50;99.90
15713;DHT22;7957;51.608;6.916;2023-08-01T11:02:23;17.60;99.90
15713;DHT22;7957;51.608;6.916;2023-08-01T11:04:59;17.60;99.90
15713;DHT22;7957;51.608;6.916;2023-08-01T11:07:26;17.70;99.90
15713;DHT22;7957;51.608;6.916;2023-08-01T11:10:08;17.90;99.90
15713;DHT22;7957;51.608;6.916;2023-08-01T11:12:36;18.00;99.90
15713;DHT22;7957;51.608;6.916;2023-08-01T11:15:04;18.10;99.90
15713;DHT22;7957;51.608;6.916;2023-08-01T11:17:34;18.20;99.90
15713;DHT22;7957;51.608;6.916;2023-08-01T11:20:03;18.20;99.90
15713;DHT22;7957;51.608;6.916;2023-08-01T11:22:30;18.20;99.90
15713;DHT22;7957;51.608;6.916;2023-08-01T11:24:57;18.20;99.90
15713;DHT22;7957;51.608;6.916;2023-08-01T11:27:24;18.30;99.90
15713;DHT22;7957;51.608;6.916;2023-08-01T11:29:52;18.40;99.90
15713;DHT22;7957;51.608;6.916;2023-08-01T11:32:18;18.50;99.90
15713;DHT22;7957;51.608;6.916;2023-08-01T11:34:46;18.60;99.90
15713;DHT22;7957;51.608;6.916;2023-08-01T11:37:20;18.60;99.90
15713;DHT22;7957;51.608;6.916;2023-08-01T11:39:47;18.80;99.90
15713;DHT22;7957;51.608;6.916;2023-08-01T11:42:16;18.80;99.90
15713;DHT22;7957;51.608;6.916;2023-08-01T11:44:43;18.90;99.90
15713;DHT22;7957;51.608;6.916;2023-08-01T11:47:13;18.90;99.90
15713;DHT22;7957;51.608;6.916;2023-08-01T11:49:45;18.90;99.90
15713;DHT22;7957;51.608;6.916;2023-08-01T11:52:24;19.00;99.90
15713;DHT22;7957;51.608;6.916;2023-08-01T11:54:51;19.20;99.90
15713;DHT22;7957;51.608;6.916;2023-08-01T11:57:18;19.50;99.90
15713;DHT22;7957;51.608;6.916;2023-08-01T11:59:48;19.80;99.90
15713;DHT22;7957;51.608;6.916;2023-08-01T12:02:25;20.30;99.90
15713;DHT22;7957;51.608;6.916;2023-08-01T12:04:53;20.70;99.90
15713;DHT22;7957;51.608;6.916;2023-08-01T12:07:20;21.00;99.90
15713;DHT22;7957;51.608;6.916;2023-08-01T12:09:56;21.30;99.90
15713;DHT22;7957;51.608;6.916;2023-08-01T12:12:25;21.50;99.90
15713;DHT22;7957;51.608;6.916;2023-08-01T12:14:52;21.70;99.90
15713;DHT22;7957;51.608;6.916;2023-08-01T12:17:19;22.00;99.90
15713;DHT22;7957;51.608;6.916;2023-08-01T12:19:47;22.30;99.90
15713;DHT22;7957;51.608;6.916;2023-08-01T12:22:14;22.40;99.90
15713;DHT22;7957;51.608;6.916;2023-08-01T12:24:41;22.30;99.90
15713;DHT22;7957;51.608;6.916;2023-08-01T12:27:09;22.30;99.90
15713;DHT22;7957;51.608;6.916;2023-08-01T12:29:36;22.10;99.90
15713;DHT22;7957;51.608;6.916;2023-08-01T12:32:04;22.00;99.90
15713;DHT22;7957;51.608;6.916;2023-08-01T12:34:32;22.00;99.90
15713;DHT22;7957;51.608;6.916;2023-08-01T12:36:59;22.10;99.90
15713;DHT22;7957;51.608;6.916;2023-08-01T12:39:25;22.10;99.90
15713;DHT22;7957;51.608;6.916;2023-08-01T12:41:52;22.10;99.90
15713;DHT22;7957;51.608;6.916;2023-08-01T12:44:22;22.10;99.90
15713;DHT22;7957;51.608;6.916;2023-08-01T12:46:49;22.10;99.90
15713;DHT22;7957;51.608;6.916;2023-08-01T12:49:17;22.10;99.90
15713;DHT22;7957;51.608;6.916;2023-08-01T12:51:44;22.00;99.90
15713;DHT22;7957;51.608;6.916;2023-08-01T12:54:11;22.00;99.90
15713;DHT22;7957;51.608;6.916;2023-08-01T12:56:38;22.00;99.90
15713;DHT22;7957;51.608;6.916;2023-08-01T12:59:05;21.90;99.90
15713;DHT22;7957;51.608;6.916;2023-08-01T13:01:33;22.00;99.90
15713;DHT22;7957;51.608;6.916;2023-08-01T13:04:00;22.20;99.90
15713;DHT22;7957;51.608;6.916;2023-08-01T13:06:30;22.30;99.90
15713;DHT22;7957;51.608;6.916;2023-08-01T13:08:56;22.50;99.90
15713;DHT22;7957;51.608;6.916;2023-08-01T13:11:24;22.70;99.90
15713;DHT22;7957;51.608;6.916;2023-08-01T13:13:51;22.80;99.90
15713;DHT22;7957;51.608;6.916;2023-08-01T13:16:18;22.90;99.90
15713;DHT22;7957;51.608;6.916;2023-08-01T13:18:46;22.80;99.90
15713;DHT22;7957;51.608;6.916;2023-08-01T13:21:13;22.80;93.30
15713;DHT22;7957;51.608;6.916;2023-08-01T13:23:40;22.80;1.00
15713;DHT22;7957;51.608;6.916;2023-08-01T13:26:07;22.80;99.90
15713;DHT22;7957;51.608;6.916;2023-08-01T13:28:36;22.80;1.00
15713;DHT22;7957;51.608;6.916;2023-08-01T13:31:02;22.70;99.90
15713;DHT22;7957;51.608;6.916;2023-08-01T13:33:37;22.60;1.00
15713;DHT22;7957;51.608;6.916;2023-08-01T13:36:05;22.60;1.00
15713;DHT22;7957;51.608;6.916;2023-08-01T13:38:32;22.50;99.90
15713;DHT22;7957;51.608;6.916;2023-08-01T13:40:59;22.50;72.30
15713;DHT22;7957;51.608;6.916;2023-08-01T13:43:26;22.50;1.00
15713;DHT22;7957;51.608;6.916;2023-08-01T13:45:53;22.60;1.00
15713;DHT22;7957;51.608;6.916;2023-08-01T13:48:20;22.60;99.90
15713;DHT22;7957;51.608;6.916;2023-08-01T13:50:47;22.70;99.90
15713;DHT22;7957;51.608;6.916;2023-08-01T13:53:15;22.70;92.40
15713;DHT22;7957;51.608;6.916;2023-08-01T13:55:42;22.80;1.00
15713;DHT22;7957;51.608;6.916;2023-08-01T13:58:09;22.80;1.00
15713;DHT22;7957;51.608;6.916;2023-08-01T14:00:36;22.70;1.00
15713;DHT22;7957;51.608;6.916;2023-08-01T14:03:03;22.80;1.00
15713;DHT22;7957;51.608;6.916;2023-08-01T14:05:30;22.70;1.00
15713;DHT22;7957;51.608;6.916;2023-08-01T14:07:57;22.70;99.90
15713;DHT22;7957;51.608;6.916;2023-08-01T14:10:27;22.60;99.90
15713;DHT22;7957;51.608;6.916;2023-08-01T14:12:54;22.50;99.90
15713;DHT22;7957;51.608;6.916;2023-08-01T14:15:21;22.40;99.90
15713;DHT22;7957;51.608;6.916;2023-08-01T14:17:48;22.30;99.90
15713;DHT22;7957;51.608;6.916;2023-08-01T14:20:15;22.20;8.40
15713;DHT22;7957;51.608;6.916;2023-08-01T14:22:42;22.10;1.00
15713;DHT22;7957;51.608;6.916;2023-08-01T14:25:09;21.90;1.00
15713;DHT22;7957;51.608;6.916;2023-08-01T14:27:39;21.90;1.00
15713;DHT22;7957;51.608;6.916;2023-08-01T14:30:07;21.80;1.00
15713;DHT22;7957;51.608;6.916;2023-08-01T14:32:37;21.80;1.00
15713;DHT22;7957;51.608;6.916;2023-08-01T14:35:05;21.90;99.90
15713;DHT22;7957;51.608;6.916;2023-08-01T14:37:32;21.90;99.90
15713;DHT22;7957;51.608;6.916;2023-08-01T14:39:59;21.90;99.90
15713;DHT22;7957;51.608;6.916;2023-08-01T14:42:26;21.90;99.90
15713;DHT22;7957;51.608;6.916;2023-08-01T14:44:55;21.90;99.90
15713;DHT22;7957;51.608;6.916;2023-08-01T14:47:22;21.80;99.90
15713;DHT22;7957;51.608;6.916;2023-08-01T14:49:49;21.70;99.90
15713;DHT22;7957;51.608;6.916;2023-08-01T14:52:16;21.70;99.90
15713;DHT22;7957;51.608;6.916;2023-08-01T14:54:43;21.70;89.30
15713;DHT22;7957;51.608;6.916;2023-08-01T14:57:10;21.60;24.40
15713;DHT22;7957;51.608;6.916;2023-08-01T14:59:37;21.60;2.50
15713;DHT22;7957;51.608;6.916;2023-08-01T15:02:06;21.60;1.00
15713;DHT22;7957;51.608;6.916;2023-08-01T15:04:33;21.60;1.00
15713;DHT22;7957;51.608;6.916;2023-08-01T15:07:01;21.70;1.00
15713;DHT22;7957;51.608;6.916;2023-08-01T15:09:34;21.60;1.00
15713;DHT22;7957;51.608;6.916;2023-08-01T15:12:13;21.60;1.00
15713;DHT22;7957;51.608;6.916;2023-08-01T15:14:49;21.60;1.00
15713;DHT22;7957;51.608;6.916;2023-08-01T15:17:18;21.60;1.00
15713;DHT22;7957;51.608;6.916;2023-08-01T15:19:45;21.50;1.00
15713;DHT22;7957;51.608;6.916;2023-08-01T15:22:12;21.50;1.00
15713;DHT22;7957;51.608;6.916;2023-08-01T15:24:39;21.60;1.00
15713;DHT22;7957;51.608;6.916;2023-08-01T15:27:06;21.60;1.00
15713;DHT22;7957;51.608;6.916;2023-08-01T15:29:33;21.70;1.00
15713;DHT22;7957;51.608;6.916;2023-08-01T15:32:00;21.70;1.00
15713;DHT22;7957;51.608;6.916;2023-08-01T15:34:28;21.70;1.00
15713;DHT22;7957;51.608;6.916;2023-08-01T15:36:55;21.70;1.00
15713;DHT22;7957;51.608;6.916;2023-08-01T15:39:22;21.70;1.00
15713;DHT22;7957;51.608;6.916;2023-08-01T15:41:52;21.70;1.00
15713;DHT22;7957;51.608;6.916;2023-08-01T15:44:19;21.70;99.90
15713;DHT22;7957;51.608;6.916;2023-08-01T15:46:46;21.70;99.90
15713;DHT22;7957;51.608;6.916;2023-08-01T15:49:13;21.80;99.90
15713;DHT22;7957;51.608;6.916;2023-08-01T15:51:41;21.80;99.90